Time;durP1;ratioP1;P1;durP2;ratioP2;P2;SDS_P1;SDS_P2;PMS_P1;PMS_P2;Temp;Humidity;BMP_temperature;BMP_pressure;BME280_temperature;BME280_humidity;BME280_pressure;Samples;Min_cycle;Max_cycle;Signal;HPM_P1;HPM_P2
2023/01/13 00:00:16;;;;;;;5.40;3.30;;;18.00;53.70;;;;;;5069332;28;45243;-78
2023/01/13 00:02:45;;;;;;;3.78;3.00;;;17.90;53.70;;;;;;5069498;28;45236;-78
2023/01/13 00:05:11;;;;;;;4.07;3.40;;;17.90;53.70;;;;;;5069551;28;45196;-78
2023/01/13 00:07:39;;;;;;;4.22;3.55;;;17.90;53.70;;;;;;5068734;28;46430;-78
2023/01/13 00:10:08;;;;;;;3.75;3.35;;;17.90;53.70;;;;;;5068802;28;45331;-78
2023/01/13 00:12:34;;;;;;;3.63;3.28;;;17.90;53.70;;;;;;5069559;28;45273;-78
2023/01/13 00:15:01;;;;;;;3.50;3.20;;;17.80;53.70;;;;;;5069284;28;45174;-78
2023/01/13 00:17:28;;;;;;;3.50;3.20;;;17.80;53.70;;;;;;5068678;28;46292;-78
2023/01/13 00:19:56;;;;;;;4.63;3.25;;;17.90;53.80;;;;;;5068497;28;45332;-78
2023/01/13 00:22:23;;;;;;;4.15;3.50;;;17.90;53.80;;;;;;5068692;28;45284;-78
2023/01/13 00:24:50;;;;;;;3.92;3.28;;;17.90;53.70;;;;;;5068782;28;45213;-78
2023/01/13 00:27:17;;;;;;;3.58;3.20;;;17.90;53.60;;;;;;5068796;28;46566;-78
2023/01/13 00:29:43;;;;;;;3.95;3.20;;;17.90;53.60;;;;;;5068352;28;45256;-78
2023/01/13 00:32:10;;;;;;;3.70;3.20;;;17.90;54.10;;;;;;5068443;28;45445;-79
2023/01/13 00:34:37;;;;;;;3.90;3.22;;;17.90;53.60;;;;;;5068585;28;45429;-78
2023/01/13 00:37:05;;;;;;;3.65;3.17;;;17.90;53.60;;;;;;5068504;28;47893;-77
2023/01/13 00:39:32;;;;;;;3.55;3.20;;;17.90;53.60;;;;;;5067581;28;45184;-78
2023/01/13 00:44:43;;;;;;;3.47;3.17;;;17.80;53.60;;;;;;5065292;28;45275;-78
2023/01/13 00:47:10;;;;;;;3.63;2.95;;;17.90;53.60;;;;;;5065567;28;46577;-78
2023/01/13 00:49:37;;;;;;;3.30;3.00;;;17.90;53.50;;;;;;5068085;28;45355;-78
2023/01/13 00:52:05;;;;;;;3.47;3.17;;;17.90;53.50;;;;;;5068383;28;45284;-78
2023/01/13 00:54:32;;;;;;;3.47;3.17;;;17.90;53.50;;;;;;5068326;28;45454;-78
2023/01/13 00:56:59;;;;;;;3.92;3.10;;;17.90;53.50;;;;;;5068218;28;47584;-78
2023/01/13 00:59:26;;;;;;;3.90;3.13;;;17.90;53.50;;;;;;5067904;28;45291;-78
2023/01/13 01:01:52;;;;;;;4.15;3.15;;;17.90;53.50;;;;;;5068026;28;45405;-78
2023/01/13 01:04:19;;;;;;;4.30;3.20;;;17.90;53.50;;;;;;5067038;28;45260;-78
2023/01/13 01:06:46;;;;;;;3.33;3.00;;;17.90;53.50;;;;;;5067533;28;45280;-78
2023/01/13 01:09:14;;;;;;;4.45;3.10;;;17.90;53.50;;;;;;5067931;28;45199;-78
2023/01/13 01:11:41;;;;;;;3.10;2.65;;;17.90;53.50;;;;;;5068023;28;45363;-78
2023/01/13 01:14:09;;;;;;;3.22;2.92;;;17.90;53.50;;;;;;5068101;28;45296;-77
2023/01/13 01:16:38;;;;;;;3.08;2.78;;;17.90;53.40;;;;;;5067566;28;46666;-78
2023/01/13 01:19:05;;;;;;;3.45;2.65;;;17.80;53.40;;;;;;5067628;28;45205;-78
2023/01/13 01:21:32;;;;;;;3.47;2.90;;;17.80;53.40;;;;;;5068097;28;45314;-78
2023/01/13 01:23:59;;;;;;;4.00;3.00;;;17.80;53.40;;;;;;5067793;28;45417;-78
2023/01/13 01:26:28;;;;;;;4.93;3.53;;;17.80;53.40;;;;;;5067724;28;45377;-76
2023/01/13 01:28:55;;;;;;;2.80;2.40;;;17.80;53.40;;;;;;5067500;28;45218;-78
2023/01/13 01:31:23;;;;;;;2.83;2.58;;;17.90;53.50;;;;;;5067677;28;45308;-78
2023/01/13 01:33:50;;;;;;;3.08;2.75;;;17.80;53.40;;;;;;5067919;28;45402;-78
2023/01/13 01:36:17;;;;;;;2.85;2.55;;;17.80;53.40;;;;;;5067563;28;46719;-78
2023/01/13 01:38:44;;;;;;;3.55;2.70;;;17.90;53.40;;;;;;5067663;28;45259;-78
2023/01/13 01:41:12;;;;;;;3.10;2.80;;;17.90;53.50;;;;;;5067563;28;45424;-78
2023/01/13 01:44:01;;;;;;;3.05;2.75;;;17.90;53.40;;;;;;5067913;28;45295;-78
2023/01/13 01:46:29;;;;;;;3.90;2.83;;;17.90;53.50;;;;;;5067560;28;46610;-78
2023/01/13 01:48:58;;;;;;;2.95;2.55;;;17.90;53.50;;;;;;5067502;28;45337;-78
2023/01/13 01:51:25;;;;;;;3.00;2.53;;;17.90;54.10;;;;;;5067267;28;45304;-78
2023/01/13 01:53:53;;;;;;;3.58;2.80;;;17.80;53.40;;;;;;5067794;28;45189;-78
2023/01/13 01:56:20;;;;;;;3.75;2.83;;;17.80;53.50;;;;;;5067185;28;45207;-78
2023/01/13 01:58:49;;;;;;;3.03;2.72;;;17.80;53.50;;;;;;5067272;28;45333;-78
2023/01/13 02:01:17;;;;;;;3.00;2.45;;;17.80;53.40;;;;;;5067267;28;45185;-78
2023/01/13 02:03:45;;;;;;;2.85;2.22;;;17.80;53.50;;;;;;5067527;28;45188;-78
2023/01/13 02:06:12;;;;;;;2.95;2.60;;;17.80;53.50;;;;;;5067290;28;45466;-78
2023/01/13 02:08:39;;;;;;;4.55;2.70;;;17.80;53.50;;;;;;5067611;28;45272;-78
2023/01/13 02:12:28;;;;;;;3.10;2.45;;;17.80;53.40;;;;;;5067218;28;45206;-77
2023/01/13 02:13:54;;;;;;;2.70;2.35;;;17.70;53.50;;;;;;5066791;28;45508;-78
2023/01/13 02:16:23;;;;;;;4.70;2.67;;;17.70;53.50;;;;;;5066531;28;45202;-77
2023/01/13 02:18:53;;;;;;;2.53;2.33;;;17.80;53.50;;;;;;5066847;28;45371;-77
2023/01/13 02:21:35;;;;;;;2.88;2.53;;;17.80;53.50;;;;;;5067203;28;45175;-78
2023/01/13 02:28:01;;;;;;;2.50;2.17;;;17.80;53.50;;;;;;5066718;28;46805;-77
2023/01/13 02:33:33;;;;;;;3.65;2.35;;;17.80;53.50;;;;;;5064417;28;45423;-78
2023/01/13 02:36:02;;;;;;;2.22;2.03;;;17.80;53.40;;;;;;5066890;28;45380;-77
2023/01/13 02:38:30;;;;;;;1.98;1.77;;;17.80;53.40;;;;;;5066558;28;46644;-77
2023/01/13 02:44:05;;;;;;;3.10;2.30;;;17.80;53.50;;;;;;5066635;28;45253;-77
2023/01/13 02:46:31;;;;;;;2.45;2.00;;;17.80;53.50;;;;;;5066735;28;45440;-78
2023/01/13 02:49:00;;;;;;;2.10;1.92;;;17.80;53.50;;;;;;5066409;28;46393;-78
2023/01/13 02:51:27;;;;;;;3.53;1.95;;;17.80;53.50;;;;;;5066256;28;45246;-78
2023/01/13 02:53:55;;;;;;;3.53;2.15;;;17.80;53.50;;;;;;5066620;28;45254;-78
2023/01/13 02:56:22;;;;;;;2.60;2.00;;;17.80;53.50;;;;;;5066738;28;45464;-78
2023/01/13 02:58:48;;;;;;;2.40;2.20;;;17.80;53.40;;;;;;5066466;28;47391;-78
2023/01/13 03:01:15;;;;;;;2.55;2.20;;;17.80;53.50;;;;;;5066268;28;45201;-78
2023/01/13 03:03:44;;;;;;;2.42;1.85;;;17.80;53.50;;;;;;5066451;28;45396;-78
2023/01/13 03:06:18;;;;;;;2.33;2.13;;;17.80;53.50;;;;;;5066647;28;45452;-78
2023/01/13 03:08:47;;;;;;;3.05;1.90;;;17.80;53.50;;;;;;5066125;28;45594;-78
2023/01/13 03:11:14;;;;;;;2.30;2.10;;;17.80;53.50;;;;;;5066053;28;45226;-77
2023/01/13 03:14:01;;;;;;;2.40;1.90;;;17.80;53.50;;;;;;5066382;28;45233;-77
2023/01/13 03:16:35;;;;;;;2.53;2.10;;;17.80;53.50;;;;;;5066356;28;45566;-78
2023/01/13 03:19:20;;;;;;;1.88;1.60;;;17.80;53.40;;;;;;5066091;28;45276;-78
2023/01/13 03:21:51;;;;;;;2.03;1.80;;;17.80;53.50;;;;;;5066028;28;45269;-78
2023/01/13 03:24:19;;;;;;;1.83;1.63;;;17.80;53.50;;;;;;5065790;28;45186;-78
2023/01/13 03:26:47;;;;;;;1.85;1.75;;;17.80;53.50;;;;;;5067300;28;45178;-78
2023/01/13 03:29:24;;;;;;;2.10;1.90;;;17.80;53.50;;;;;;5069508;28;45428;-78
2023/01/13 03:31:55;;;;;;;2.17;1.85;;;17.80;53.40;;;;;;5069268;28;45290;-78
2023/01/13 03:34:25;;;;;;;1.95;1.73;;;17.80;54.10;;;;;;5069823;28;45243;-78
2023/01/13 03:36:53;;;;;;;1.73;1.52;;;17.70;53.50;;;;;;5069667;28;45208;-77
2023/01/13 03:39:22;;;;;;;1.58;1.48;;;17.70;53.50;;;;;;5069227;28;45217;-77
2023/01/13 03:41:51;;;;;;;1.83;1.67;;;17.80;53.50;;;;;;5069270;28;45387;-78
2023/01/13 03:44:21;;;;;;;1.58;1.48;;;17.70;53.40;;;;;;5069619;28;45214;-78
2023/01/13 03:46:52;;;;;;;2.22;1.63;;;17.70;53.40;;;;;;5069501;28;45458;-78
2023/01/13 03:49:20;;;;;;;1.75;1.58;;;17.80;53.50;;;;;;5068815;28;46937;-77
2023/01/13 03:51:50;;;;;;;1.60;1.50;;;17.80;53.50;;;;;;5068353;28;45199;-78
2023/01/13 03:54:17;;;;;;;1.40;1.30;;;17.80;53.50;;;;;;5069176;28;45230;-77
2023/01/13 03:56:45;;;;;;;1.60;1.48;;;17.80;53.50;;;;;;5069475;28;45170;-77
2023/01/13 03:59:14;;;;;;;1.60;1.50;;;17.80;53.50;;;;;;5069151;28;46414;-78
2023/01/13 04:01:44;;;;;;;2.10;1.60;;;17.80;53.50;;;;;;5068919;28;45338;-78
2023/01/13 04:04:12;;;;;;;2.10;1.60;;;17.80;53.50;;;;;;5069169;28;45277;-78
2023/01/13 04:06:41;;;;;;;1.30;1.20;;;17.80;53.50;;;;;;5069217;28;45275;-78
2023/01/13 04:09:14;;;;;;;1.50;1.33;;;17.80;53.50;;;;;;5068802;28;46417;-78
2023/01/13 04:11:43;;;;;;;2.25;1.60;;;17.80;53.50;;;;;;5068666;28;45379;-77
2023/01/13 04:14:10;;;;;;;2.00;1.80;;;17.80;53.50;;;;;;5069032;28;45427;-78
2023/01/13 04:16:37;;;;;;;1.58;1.40;;;17.80;53.40;;;;;;5069092;28;45312;-77
2023/01/13 04:19:04;;;;;;;2.20;1.50;;;17.80;53.50;;;;;;5068585;28;46443;-78
2023/01/13 04:21:32;;;;;;;1.60;1.50;;;17.80;53.40;;;;;;5068678;28;45381;-78
2023/01/13 04:23:58;;;;;;;1.38;1.27;;;17.80;53.50;;;;;;5068432;28;45212;-78
2023/01/13 04:26:27;;;;;;;1.50;1.38;;;17.70;53.50;;;;;;5069115;28;45123;-77
2023/01/13 04:28:54;;;;;;;1.65;1.40;;;17.80;53.60;;;;;;5068585;28;45415;-77
2023/01/13 04:31:21;;;;;;;1.60;1.48;;;17.80;53.50;;;;;;5068385;28;45254;-77
2023/01/13 04:33:48;;;;;;;1.45;1.35;;;17.70;53.40;;;;;;5068683;28;45134;-77
2023/01/13 04:36:15;;;;;;;2.75;1.50;;;17.80;53.50;;;;;;5068718;28;45185;-77
2023/01/13 04:38:42;;;;;;;1.52;1.30;;;17.80;53.50;;;;;;5067949;28;45566;-76
2023/01/13 04:41:08;;;;;;;1.23;1.15;;;17.70;53.40;;;;;;5067607;28;45354;-78
2023/01/13 04:43:37;;;;;;;2.00;1.40;;;17.70;53.50;;;;;;5068489;28;45134;-78
2023/01/13 04:46:03;;;;;;;2.08;1.55;;;17.70;53.40;;;;;;5068923;28;45185;-77
2023/01/13 04:48:30;;;;;;;1.38;1.27;;;17.70;53.50;;;;;;5068258;28;46413;-77
2023/01/13 04:50:57;;;;;;;1.45;1.35;;;17.70;53.40;;;;;;5068106;27;45898;-77
2023/01/13 04:53:24;;;;;;;1.40;1.30;;;17.70;53.40;;;;;;5068447;28;45358;-78
2023/01/13 04:55:51;;;;;;;1.30;1.20;;;17.70;53.40;;;;;;5068600;28;45287;-78
2023/01/13 04:58:18;;;;;;;1.35;1.25;;;17.80;53.40;;;;;;5065391;28;46484;-78
2023/01/13 05:00:46;;;;;;;1.98;1.30;;;17.80;53.40;;;;;;5068319;28;45292;-78
2023/01/13 05:03:13;;;;;;;1.25;1.15;;;17.80;53.50;;;;;;5068338;28;45312;-78
2023/01/13 05:05:39;;;;;;;1.20;1.10;;;17.70;54.00;;;;;;5068489;28;45661;-77
2023/01/13 05:08:07;;;;;;;1.27;1.17;;;17.80;53.50;;;;;;5067992;27;45578;-78
2023/01/13 05:10:34;;;;;;;1.40;1.30;;;17.70;53.40;;;;;;5068018;28;45240;-77
2023/01/13 05:18:31;;;;;;;1.10;1.10;;;17.70;53.40;;;;;;5065250;28;45189;-78
2023/01/13 05:20:57;;;;;;;1.25;1.17;;;17.70;53.50;;;;;;5067882;28;45265;-78
2023/01/13 05:26:08;;;;;;;1.00;1.00;;;17.70;53.40;;;;;;5065403;28;45354;-78
2023/01/13 05:28:35;;;;;;;1.35;1.00;;;17.70;53.40;;;;;;5067548;28;46427;-79
2023/01/13 05:31:03;;;;;;;1.25;1.15;;;17.70;53.40;;;;;;5067609;28;45306;-78
2023/01/13 05:33:30;;;;;;;1.10;1.00;;;17.70;53.80;;;;;;5067875;28;45262;-78
2023/01/13 05:36:01;;;;;;;1.35;1.08;;;17.70;53.40;;;;;;5068025;28;45182;-77
2023/01/13 05:38:28;;;;;;;1.00;1.00;;;17.80;53.50;;;;;;5067408;28;46355;-75
2023/01/13 05:43:39;;;;;;;0.93;0.93;;;17.70;53.40;;;;;;5064947;28;45204;-78
2023/01/13 05:46:08;;;;;;;1.00;0.85;;;17.70;53.40;;;;;;5067085;28;45189;-78
2023/01/13 05:48:36;;;;;;;1.55;0.90;;;17.70;53.40;;;;;;5067201;28;45493;-77
2023/01/13 05:51:03;;;;;;;1.20;1.02;;;17.70;53.40;;;;;;5067147;28;45245;-77
2023/01/13 05:53:30;;;;;;;1.00;0.90;;;17.70;53.40;;;;;;5067717;28;45142;-77
2023/01/13 05:55:57;;;;;;;1.00;0.90;;;17.70;53.40;;;;;;5067890;28;45186;-77
2023/01/13 05:58:25;;;;;;;1.10;1.00;;;17.70;53.50;;;;;;5067353;28;45316;-77
2023/01/13 06:00:52;;;;;;;0.90;0.90;;;17.70;53.50;;;;;;5066609;28;45244;-77
2023/01/13 06:03:20;;;;;;;1.02;0.90;;;17.70;53.50;;;;;;5067609;28;45264;-77
2023/01/13 06:05:47;;;;;;;1.10;0.90;;;17.70;53.50;;;;;;5067544;28;45293;-78
2023/01/13 06:08:14;;;;;;;1.30;1.20;;;17.70;53.50;;;;;;5067134;28;45299;-77
2023/01/13 06:10:41;;;;;;;1.00;0.95;;;17.70;53.50;;;;;;5067030;28;45375;-77
2023/01/13 06:13:07;;;;;;;1.10;1.02;;;17.70;53.50;;;;;;5067275;28;45364;-78
2023/01/13 06:15:34;;;;;;;0.85;0.85;;;17.70;53.50;;;;;;5067246;28;45459;-77
2023/01/13 06:18:02;;;;;;;0.90;0.90;;;17.70;53.50;;;;;;5067064;28;45203;-77
2023/01/13 06:20:31;;;;;;;0.70;0.70;;;17.70;53.40;;;;;;5066987;28;45349;-77
2023/01/13 06:22:57;;;;;;;1.00;0.90;;;17.70;53.50;;;;;;5066913;28;45263;-77
2023/01/13 06:25:29;;;;;;;0.93;0.90;;;17.70;53.50;;;;;;5067459;28;45475;-77
2023/01/13 06:27:56;;;;;;;0.82;0.82;;;17.70;53.50;;;;;;5066583;28;46661;-77
2023/01/13 06:30:23;;;;;;;0.80;0.80;;;17.70;53.50;;;;;;5066778;28;45237;-77
2023/01/13 06:32:52;;;;;;;0.70;0.70;;;17.70;53.50;;;;;;5066916;28;45232;-77
2023/01/13 06:35:20;;;;;;;0.90;0.90;;;17.70;53.50;;;;;;5067153;28;45368;-77
2023/01/13 06:37:49;;;;;;;0.70;0.70;;;17.70;53.50;;;;;;5066799;28;45454;-77
2023/01/13 06:40:16;;;;;;;0.90;0.90;;;17.70;53.50;;;;;;5066205;28;45200;-76
2023/01/13 06:45:27;;;;;;;0.85;0.77;;;17.70;53.50;;;;;;5063771;28;45260;-77
2023/01/13 06:47:55;;;;;;;0.70;0.70;;;17.70;53.50;;;;;;5066000;28;46643;-77
2023/01/13 06:50:22;;;;;;;0.77;0.77;;;17.70;53.50;;;;;;5066387;28;45296;-77
2023/01/13 06:52:50;;;;;;;0.75;0.70;;;17.70;53.50;;;;;;5066631;28;45329;-77
2023/01/13 06:55:17;;;;;;;0.63;0.63;;;17.70;53.50;;;;;;5066934;28;45221;-77
2023/01/13 06:57:51;;;;;;;0.80;0.80;;;17.70;53.50;;;;;;5066390;28;45392;-77
2023/01/13 07:00:18;;;;;;;0.80;0.80;;;17.70;53.50;;;;;;5066578;28;45181;-77
2023/01/13 07:02:45;;;;;;;0.50;0.50;;;17.70;53.50;;;;;;5070182;28;45315;-77
2023/01/13 07:05:12;;;;;;;1.00;0.60;;;17.70;53.50;;;;;;5070364;28;45290;-77
2023/01/13 07:07:39;;;;;;;0.60;0.60;;;17.70;53.50;;;;;;5069707;28;45486;-77
2023/01/13 07:10:10;;;;;;;0.63;0.63;;;17.70;53.60;;;;;;5070192;28;45260;-77
2023/01/13 07:15:17;;;;;;;1.00;0.80;;;17.70;53.50;;;;;;5069951;28;45330;-77
2023/01/13 07:15:24;;;;;;;0.70;0.70;;;17.70;53.60;;;;;;5069816;28;45609;-77
2023/01/13 07:17:51;;;;;;;0.80;0.80;;;17.70;53.60;;;;;;5069696;28;45518;-78
2023/01/13 07:20:18;;;;;;;0.60;0.60;;;17.70;53.50;;;;;;5066988;28;45324;-77
2023/01/13 07:22:44;;;;;;;0.75;0.75;;;17.70;53.50;;;;;;5069409;28;45210;-77
2023/01/13 07:25:13;;;;;;;0.70;0.70;;;17.70;53.50;;;;;;5069896;28;45257;-77
2023/01/13 07:27:39;;;;;;;1.30;0.88;;;17.70;53.60;;;;;;5069573;28;45401;-77
2023/01/13 07:30:10;;;;;;;0.60;0.60;;;17.70;53.60;;;;;;5069562;28;45183;-77
2023/01/13 07:32:36;;;;;;;0.70;0.63;;;17.70;53.60;;;;;;5069639;28;45278;-77
2023/01/13 07:35:04;;;;;;;1.27;0.50;;;17.70;53.60;;;;;;5069698;28;45493;-77
2023/01/13 07:37:32;;;;;;;0.52;0.52;;;17.70;53.60;;;;;;5069146;28;46505;-77
2023/01/13 07:39:59;;;;;;;0.80;0.70;;;17.70;53.60;;;;;;5068661;28;45258;-77
2023/01/13 07:45:12;;;;;;;0.57;0.57;;;17.70;53.60;;;;;;5069198;28;45319;-77
2023/01/13 07:47:39;;;;;;;0.82;0.50;;;17.70;53.60;;;;;;5069038;28;45519;-78
2023/01/13 07:50:06;;;;;;;0.77;0.47;;;17.70;53.60;;;;;;5069499;28;45146;-77
2023/01/13 07:52:33;;;;;;;0.70;0.70;;;17.70;53.60;;;;;;5069208;28;45276;-77
2023/01/13 07:55:00;;;;;;;0.73;0.73;;;17.70;54.20;;;;;;5069725;28;45475;-78
2023/01/13 07:57:28;;;;;;;0.93;0.70;;;17.70;53.60;;;;;;5069100;28;45350;-77
2023/01/13 07:59:55;;;;;;;0.68;0.68;;;17.70;53.60;;;;;;5069458;28;45310;-78
2023/01/13 08:02:22;;;;;;;0.50;0.50;;;17.70;53.60;;;;;;5069332;28;45232;-78
2023/01/13 08:04:49;;;;;;;0.57;0.57;;;17.70;53.60;;;;;;5069430;28;45224;-78
2023/01/13 08:07:16;;;;;;;0.50;0.50;;;17.70;53.60;;;;;;5068877;28;46720;-78
2023/01/13 08:09:43;;;;;;;0.70;0.52;;;17.70;53.60;;;;;;5068777;28;45369;-78
2023/01/13 08:14:55;;;;;;;0.50;0.50;;;17.70;53.60;;;;;;5069426;28;45309;-78
2023/01/13 08:17:22;;;;;;;0.63;0.60;;;17.70;53.70;;;;;;5068848;28;45310;-78
2023/01/13 08:19:49;;;;;;;0.60;0.60;;;17.70;53.70;;;;;;5069048;28;45233;-78
2023/01/13 08:22:15;;;;;;;0.60;0.60;;;17.70;53.70;;;;;;5068841;28;45367;-78
2023/01/13 08:24:42;;;;;;;0.65;0.60;;;17.70;53.70;;;;;;5069054;28;45434;-77
2023/01/13 08:27:09;;;;;;;0.75;0.63;;;17.70;53.70;;;;;;5068519;28;45329;-77
2023/01/13 08:29:36;;;;;;;2.20;0.60;;;17.70;53.70;;;;;;5068643;28;45193;-78
2023/01/13 08:32:04;;;;;;;1.75;0.70;;;17.70;53.80;;;;;;5069137;28;45240;-77
2023/01/13 08:34:31;;;;;;;0.70;0.70;;;17.70;53.80;;;;;;5068079;28;45309;-78
2023/01/13 08:36:58;;;;;;;0.60;0.60;;;17.70;53.80;;;;;;5068366;28;46458;-77
2023/01/13 08:39:25;;;;;;;0.75;0.75;;;17.70;53.80;;;;;;5068400;28;45502;-78
2023/01/13 08:41:55;;;;;;;0.80;0.80;;;17.70;53.80;;;;;;5068552;28;45205;-78
2023/01/13 08:44:21;;;;;;;0.52;0.52;;;17.70;53.80;;;;;;5068826;28;45323;-78
2023/01/13 08:46:48;;;;;;;0.85;0.63;;;17.70;53.70;;;;;;5068392;28;45309;-77
2023/01/13 08:49:17;;;;;;;0.60;0.55;;;17.80;53.80;;;;;;5068552;28;45363;-77
2023/01/13 08:51:44;;;;;;;0.65;0.65;;;17.80;53.80;;;;;;5068461;28;45288;-78
2023/01/13 08:54:11;;;;;;;0.57;0.57;;;17.80;53.70;;;;;;5068696;28;45390;-77
2023/01/13 08:56:37;;;;;;;0.60;0.60;;;17.80;54.30;;;;;;5068353;28;46633;-77
2023/01/13 08:59:04;;;;;;;0.90;0.80;;;17.80;53.70;;;;;;5068247;28;45323;-78
2023/01/13 09:01:32;;;;;;;0.70;0.70;;;17.80;53.80;;;;;;5068188;28;45221;-78
2023/01/13 09:03:59;;;;;;;0.73;0.70;;;17.80;53.70;;;;;;5068518;28;45197;-77
2023/01/13 09:06:27;;;;;;;0.70;0.70;;;17.80;53.70;;;;;;5067995;28;48333;-78
2023/01/13 09:08:54;;;;;;;0.50;0.50;;;17.80;53.70;;;;;;5068048;28;45300;-77
2023/01/13 09:14:10;;;;;;;0.68;0.68;;;17.90;53.80;;;;;;5068654;28;45198;-78
2023/01/13 09:16:37;;;;;;;1.30;0.70;;;17.90;53.80;;;;;;5068192;28;47335;-78
2023/01/13 09:19:04;;;;;;;0.77;0.77;;;17.80;53.70;;;;;;5067968;28;45317;-78
2023/01/13 09:21:32;;;;;;;0.50;0.50;;;17.90;53.70;;;;;;5067831;28;45310;-77
2023/01/13 09:23:59;;;;;;;3.33;0.60;;;17.90;53.70;;;;;;5066255;28;45178;-77
2023/01/13 09:26:25;;;;;;;1.27;0.90;;;17.90;53.70;;;;;;5067130;28;45454;-77
2023/01/13 09:28:52;;;;;;;0.60;0.60;;;17.90;53.70;;;;;;5067439;28;45319;-78
2023/01/13 09:31:19;;;;;;;0.70;0.70;;;17.90;53.70;;;;;;5067781;28;45337;-77
2023/01/13 09:36:31;;;;;;;0.70;0.70;;;17.90;53.70;;;;;;5067822;28;45336;-77
2023/01/13 09:38:58;;;;;;;0.90;0.90;;;17.90;53.70;;;;;;5065001;28;45230;-77
2023/01/13 09:44:13;;;;;;;1.23;0.90;;;17.90;53.70;;;;;;5065026;28;45279;-78
2023/01/13 09:46:46;;;;;;;1.00;0.90;;;17.90;53.70;;;;;;5067153;28;46621;-78
2023/01/13 09:49:19;;;;;;;1.00;0.88;;;17.90;53.70;;;;;;5067412;28;45396;-77
2023/01/13 09:51:49;;;;;;;0.90;0.90;;;17.90;53.70;;;;;;5067524;28;45217;-77
2023/01/13 09:54:26;;;;;;;0.90;0.90;;;17.90;53.70;;;;;;5067639;28;45483;-78
2023/01/13 09:56:53;;;;;;;1.00;0.90;;;17.90;53.70;;;;;;5067265;28;46728;-77
2023/01/13 09:59:20;;;;;;;1.73;0.95;;;17.90;53.60;;;;;;5067455;28;45228;-77
2023/01/13 10:01:51;;;;;;;1.33;1.10;;;17.90;53.70;;;;;;5067313;28;45380;-78
2023/01/13 10:04:18;;;;;;;0.93;0.90;;;18.00;53.70;;;;;;5067525;28;45126;-77
2023/01/13 10:06:48;;;;;;;2.72;1.08;;;18.00;53.70;;;;;;5067325;28;46877;-78
2023/01/13 10:09:16;;;;;;;1.30;1.20;;;18.00;53.60;;;;;;5067290;28;45296;-77
2023/01/13 10:14:28;;;;;;;1.00;1.00;;;18.10;53.50;;;;;;5064721;28;45217;-77
2023/01/13 10:17:00;;;;;;;1.10;1.00;;;18.10;53.50;;;;;;5066767;28;45510;-77
2023/01/13 10:19:29;;;;;;;1.30;1.20;;;18.10;53.30;;;;;;5067015;28;45401;-77
2023/01/13 10:22:22;;;;;;;1.30;1.20;;;18.10;53.20;;;;;;5066817;28;45248;-77
2023/01/13 10:25:17;;;;;;;1.35;1.08;;;18.20;53.20;;;;;;5067323;28;45174;-77
2023/01/13 10:27:48;;;;;;;0.98;0.98;;;18.20;53.20;;;;;;5066917;28;45504;-77
2023/01/13 10:30:18;;;;;;;1.15;1.05;;;18.20;53.10;;;;;;5067038;28;45321;-78
2023/01/13 10:32:47;;;;;;;1.27;1.17;;;18.30;53.00;;;;;;5066773;28;45348;-78
2023/01/13 10:35:14;;;;;;;0.95;0.90;;;18.30;53.00;;;;;;5066959;28;45384;-78
2023/01/13 10:37:42;;;;;;;1.20;1.10;;;18.30;52.90;;;;;;5066669;28;46596;-77
2023/01/13 10:40:13;;;;;;;1.92;1.20;;;18.40;53.50;;;;;;5066793;28;45229;-78
2023/01/13 10:42:40;;;;;;;1.40;1.13;;;18.40;52.80;;;;;;5064399;28;45235;-78
2023/01/13 10:45:17;;;;;;;1.50;1.40;;;18.40;53.20;;;;;;5067225;28;45376;-77
2023/01/13 10:47:44;;;;;;;1.65;1.27;;;18.50;52.60;;;;;;5066752;28;46686;-77
2023/01/13 10:50:23;;;;;;;1.05;1.00;;;18.50;52.50;;;;;;5066423;28;45177;-78
2023/01/13 10:52:59;;;;;;;2.85;1.20;;;18.60;52.40;;;;;;5066574;28;45316;-78
2023/01/13 10:55:28;;;;;;;1.40;1.30;;;18.70;52.30;;;;;;5066949;28;45315;-78
2023/01/13 10:57:55;;;;;;;1.50;1.30;;;18.70;52.20;;;;;;5066592;28;46376;-78
2023/01/13 11:00:26;;;;;;;1.67;1.58;;;18.80;52.10;;;;;;5066546;28;45457;-79
2023/01/13 11:03:10;;;;;;;1.63;1.48;;;18.80;51.90;;;;;;5067287;28;45181;-77
2023/01/13 11:05:37;;;;;;;2.13;1.50;;;18.80;51.90;;;;;;5067405;28;45309;-77
2023/01/13 11:08:13;;;;;;;2.10;1.50;;;18.80;52.00;;;;;;5066662;28;46665;-77
2023/01/13 11:10:44;;;;;;;1.50;1.40;;;18.80;52.10;;;;;;5066616;28;45190;-77
2023/01/13 11:13:13;;;;;;;4.35;1.70;;;18.70;52.10;;;;;;5066602;28;45289;-77
2023/01/13 11:15:41;;;;;;;1.65;1.50;;;18.70;52.20;;;;;;5065903;28;45443;-77
2023/01/13 11:18:13;;;;;;;1.30;1.20;;;18.80;52.10;;;;;;5066447;28;45448;-78
2023/01/13 11:20:41;;;;;;;2.05;1.20;;;18.90;52.00;;;;;;5066420;28;45219;-77
2023/01/13 11:23:13;;;;;;;1.85;1.60;;;18.90;51.80;;;;;;5066323;28;45333;-77
2023/01/13 11:25:42;;;;;;;2.85;1.50;;;19.00;51.70;;;;;;5066505;28;45203;-77
2023/01/13 11:28:32;;;;;;;1.40;1.17;;;19.10;51.50;;;;;;5066153;28;46624;-78
2023/01/13 11:31:04;;;;;;;1.40;1.30;;;19.20;51.30;;;;;;5065982;28;45143;-77
2023/01/13 11:33:35;;;;;;;1.80;1.70;;;19.10;51.40;;;;;;5066159;28;45297;-77
2023/01/13 11:36:06;;;;;;;1.70;1.60;;;19.00;51.60;;;;;;5066840;28;45318;-76
2023/01/13 11:38:39;;;;;;;1.90;1.80;;;19.00;51.90;;;;;;5066154;28;45555;-77
2023/01/13 11:41:08;;;;;;;1.65;1.55;;;18.90;52.10;;;;;;5066711;28;45250;-77
2023/01/13 11:43:38;;;;;;;2.85;2.05;;;18.80;52.20;;;;;;5067007;28;45264;-77
2023/01/13 11:46:05;;;;;;;2.13;1.92;;;18.80;52.30;;;;;;5066323;28;45424;-78
2023/01/13 11:48:33;;;;;;;3.15;2.10;;;18.80;52.50;;;;;;5067927;28;45256;-77
2023/01/13 11:51:02;;;;;;;3.25;2.20;;;18.70;52.50;;;;;;5069423;28;45150;-77
2023/01/13 11:53:47;;;;;;;3.42;2.25;;;18.70;52.60;;;;;;5069558;28;45244;-77
2023/01/13 11:56:25;;;;;;;2.35;2.15;;;18.70;52.70;;;;;;5069249;28;45641;-77
2023/01/13 11:59:22;;;;;;;3.10;2.80;;;18.70;52.60;;;;;;5069522;28;46892;-77
2023/01/13 12:01:57;;;;;;;3.30;2.83;;;18.70;52.50;;;;;;5066628;28;45479;-77
2023/01/13 12:04:26;;;;;;;3.72;2.75;;;18.70;52.60;;;;;;5069561;28;45242;-77
2023/01/13 12:06:56;;;;;;;3.33;2.95;;;18.70;52.40;;;;;;5069621;28;45358;-77
2023/01/13 12:09:30;;;;;;;3.03;2.72;;;18.80;52.50;;;;;;5069351;28;45625;-77
2023/01/13 12:12:23;;;;;;;3.28;2.97;;;18.70;52.40;;;;;;5069515;28;45289;-77
2023/01/13 12:15:01;;;;;;;3.33;2.85;;;18.70;52.40;;;;;;5069663;28;45313;-77
2023/01/13 12:17:32;;;;;;;3.78;3.00;;;18.70;52.50;;;;;;5070227;28;45282;-77
2023/01/13 12:19:59;;;;;;;4.25;3.35;;;18.80;52.40;;;;;;5069248;28;46300;-77
2023/01/13 12:22:26;;;;;;;4.20;3.60;;;19.00;52.00;;;;;;5069219;28;45372;-77
2023/01/13 12:24:57;;;;;;;3.45;3.15;;;19.20;51.80;;;;;;5069305;28;45143;-78
2023/01/13 12:27:27;;;;;;;3.35;3.00;;;19.30;51.50;;;;;;5069313;28;45360;-77
2023/01/13 12:29:57;;;;;;;4.50;3.42;;;19.40;51.20;;;;;;5068966;28;45277;-78
2023/01/13 12:32:27;;;;;;;3.28;2.97;;;19.50;51.00;;;;;;5069139;28;45225;-77
2023/01/13 12:35:06;;;;;;;5.90;3.50;;;19.50;50.90;;;;;;5069340;28;45291;-77
2023/01/13 12:37:35;;;;;;;4.03;3.63;;;19.60;50.80;;;;;;5069356;28;45565;-77
2023/01/13 12:40:15;;;;;;;3.83;3.42;;;19.70;50.60;;;;;;5069517;28;46393;-77
2023/01/13 12:45:29;;;;;;;3.75;3.45;;;19.60;50.60;;;;;;5070010;28;45288;-77
2023/01/13 12:47:56;;;;;;;4.72;4.18;;;19.50;50.90;;;;;;5069343;28;45550;-78
2023/01/13 12:50:44;;;;;;;4.30;3.90;;;19.30;51.20;;;;;;5068577;28;47082;-78
2023/01/13 12:53:44;;;;;;;3.95;3.45;;;19.20;51.50;;;;;;5066701;28;45260;-77
2023/01/13 12:56:29;;;;;;;5.40;3.75;;;19.10;51.80;;;;;;5046626;28;45332;-77
2023/01/13 12:59:49;;;;;;;6.22;3.92;;;19.00;51.90;;;;;;5046356;28;45253;-77
2023/01/13 13:02:30;;;;;;;6.65;3.75;;;19.00;52.20;;;;;;5066593;28;45540;-76
2023/01/13 13:04:57;;;;;;;4.10;3.70;;;18.90;52.40;;;;;;5068158;28;45258;-75
2023/01/13 13:07:31;;;;;;;5.25;4.25;;;18.80;52.50;;;;;;5068081;28;45176;-77
2023/01/13 13:10:00;;;;;;;4.03;3.63;;;18.80;52.70;;;;;;5068120;28;45404;-77
2023/01/13 13:15:41;;;;;;;5.20;4.28;;;18.70;52.80;;;;;;5068052;28;45212;-76
2023/01/13 13:18:26;;;;;;;5.80;4.50;;;18.70;52.90;;;;;;5068035;28;45457;-77
2023/01/13 13:21:00;;;;;;;6.68;4.38;;;18.60;52.80;;;;;;5068115;28;45574;-77
2023/01/13 13:23:43;;;;;;;5.82;4.78;;;18.60;52.80;;;;;;5067379;28;46930;-77
2023/01/13 13:26:29;;;;;;;5.57;4.50;;;18.60;52.90;;;;;;5067707;28;45159;-77
2023/01/13 13:29:14;;;;;;;6.97;4.60;;;18.60;52.90;;;;;;5067719;28;45130;-77
2023/01/13 13:31:56;;;;;;;4.63;4.15;;;18.60;53.00;;;;;;5067903;28;45487;-77
2023/01/13 13:34:27;;;;;;;4.55;3.88;;;18.50;53.10;;;;;;5067346;28;45241;-76
2023/01/13 13:37:09;;;;;;;6.38;4.85;;;18.50;53.10;;;;;;5067362;28;45340;-76
2023/01/13 13:47:59;;;;;;;5.40;4.45;;;18.50;53.20;;;;;;5064860;28;45208;-77
2023/01/13 13:50:31;;;;;;;6.03;4.57;;;18.50;53.20;;;;;;5067409;28;45224;-77
2023/01/13 13:53:01;;;;;;;5.45;4.40;;;18.50;53.20;;;;;;5067574;28;45462;-77
2023/01/13 13:55:28;;;;;;;5.10;4.60;;;18.40;53.20;;;;;;5067358;28;46366;-77
2023/01/13 13:57:56;;;;;;;5.28;4.40;;;18.40;53.20;;;;;;5067168;28;45269;-77